Time;durP1;ratioP1;P1;durP2;ratioP2;P2;SDS_P1;SDS_P2;PMS_P1;PMS_P2;Temp;Humidity;BMP_temperature;BMP_pressure;BME280_temperature;BME280_humidity;BME280_pressure;Samples;Min_cycle;Max_cycle;Signal;HPM_P1;HPM_P2
2023/06/10 00:01:55;;;;;;;9.43;8.67;;;;;;;20.04;57.80;156515.19;5052535;28;20450;-85
2023/06/10 00:04:22;;;;;;;9.73;8.93;;;;;;;20.03;57.98;156512.53;5045633;28;20463;-86
2023/06/10 00:06:49;;;;;;;10.20;9.40;;;;;;;20.00;57.71;156506.03;5061472;28;21064;-85
2023/06/10 00:09:18;;;;;;;10.00;9.10;;;;;;;20.04;58.64;156515.19;5062466;28;20541;-85
2023/06/10 00:11:45;;;;;;;9.70;8.90;;;;;;;20.05;58.00;156519.06;5044816;28;20447;-85
2023/06/10 00:14:11;;;;;;;9.77;8.87;;;;;;;20.03;59.16;156512.53;5041866;28;20455;-85
2023/06/10 00:16:38;;;;;;;9.63;8.80;;;;;;;19.98;59.70;156500.81;5044808;28;20443;-85
2023/06/10 00:19:05;;;;;;;10.00;9.20;;;;;;;19.88;59.87;156473.44;5045939;28;20513;-86
2023/06/10 00:21:37;;;;;;;9.37;8.57;;;;;;;19.79;60.37;156449.94;5044506;28;20836;-86
2023/06/10 00:24:05;;;;;;;10.00;7.97;;;;;;;19.77;60.61;156444.75;5046352;28;20462;-85
2023/06/10 00:26:33;;;;;;;9.10;8.30;;;;;;;19.74;60.50;156436.91;5059413;28;20562;-85
2023/06/10 00:28:59;;;;;;;9.73;8.83;;;;;;;19.81;60.74;156455.16;5048832;28;20467;-85
2023/06/10 00:31:28;;;;;;;9.40;8.60;;;;;;;19.87;60.25;156470.81;5026746;28;20896;-86
2023/06/10 00:33:54;;;;;;;8.90;8.20;;;;;;;19.90;60.17;156478.66;5061582;28;20446;-85
2023/06/10 00:36:21;;;;;;;11.27;10.23;;;;;;;19.87;60.56;156472.13;5044070;28;20978;-85
2023/06/10 00:38:48;;;;;;;8.90;8.20;;;;;;;19.82;60.46;156459.09;5045128;28;20451;-85
2023/06/10 00:41:14;;;;;;;9.83;9.03;;;;;;;19.78;61.01;156448.63;5040791;28;20491;-85
2023/06/10 00:43:42;;;;;;;10.00;9.10;;;;;;;19.80;61.16;156453.84;5050527;28;20697;-85
2023/06/10 00:46:09;;;;;;;8.10;7.40;;;;;;;19.82;60.93;156457.78;5024915;28;20478;-85
2023/06/10 00:48:35;;;;;;;9.70;8.47;;;;;;;19.71;61.21;156430.41;5061651;28;20613;-86
2023/06/10 00:51:03;;;;;;;8.70;7.90;;;;;;;19.67;61.34;156418.69;5060700;28;20538;-86
2023/06/10 00:53:29;;;;;;;8.93;8.13;;;;;;;19.64;61.72;156410.84;5050967;28;20454;-86
2023/06/10 00:55:56;;;;;;;9.97;9.07;;;;;;;19.62;61.73;156405.66;5042485;28;20497;-85
2023/06/10 00:58:23;;;;;;;8.53;7.77;;;;;;;19.56;61.91;156390.00;5042306;28;20879;-85
2023/06/10 01:00:53;;;;;;;8.70;7.80;;;;;;;19.55;62.21;156387.38;5030337;28;20559;-85
2023/06/10 01:03:20;;;;;;;9.00;8.20;;;;;;;19.54;62.01;156384.78;5056763;28;20533;-85
2023/06/10 01:05:55;;;;;;;8.20;7.50;;;;;;;19.56;62.04;156391.31;5045735;28;20555;-85
2023/06/10 01:08:30;;;;;;;9.47;8.47;;;;;;;19.57;62.55;156392.56;5037735;28;21011;-86
2023/06/10 01:11:00;;;;;;;9.13;8.33;;;;;;;19.52;62.42;156379.53;5044491;28;20484;-86
2023/06/10 01:13:28;;;;;;;9.07;8.27;;;;;;;19.38;62.84;156345.66;5063008;28;20486;-86
2023/06/10 01:15:57;;;;;;;8.10;7.30;;;;;;;19.34;63.12;156333.88;5030429;28;20548;-86
2023/06/10 01:18:23;;;;;;;8.13;7.43;;;;;;;19.41;63.33;156353.47;5031383;28;20491;-85
2023/06/10 01:20:52;;;;;;;8.67;7.87;;;;;;;19.36;63.14;156340.41;5044154;28;20961;-85
2023/06/10 01:23:20;;;;;;;8.30;7.50;;;;;;;19.36;63.30;156339.09;5045359;28;20451;-85
2023/06/10 01:25:49;;;;;;;8.57;7.83;;;;;;;19.32;63.58;156330.00;5059243;28;20466;-86
2023/06/10 01:28:19;;;;;;;7.93;7.23;;;;;;;19.37;63.61;156341.72;5057454;28;20459;-85
2023/06/10 01:30:52;;;;;;;8.47;7.67;;;;;;;19.36;63.36;156339.09;5026521;28;20439;-85
2023/06/10 01:33:20;;;;;;;7.70;7.10;;;;;;;19.42;63.39;156356.09;5031123;28;20829;-85
2023/06/10 01:35:48;;;;;;;7.67;6.97;;;;;;;19.43;63.21;156358.69;5062651;28;20458;-86
2023/06/10 01:38:15;;;;;;;9.00;8.10;;;;;;;19.36;63.60;156340.41;5060693;28;20504;-86
2023/06/10 01:40:44;;;;;;;8.10;7.30;;;;;;;19.24;63.88;156307.84;5040311;28;20460;-86
2023/06/10 01:43:10;;;;;;;8.67;7.87;;;;;;;19.14;64.29;156283.03;5043103;28;20447;-86
2023/06/10 01:45:37;;;;;;;8.33;7.40;;;;;;;19.13;64.51;156280.47;5043206;28;20450;-86
2023/06/10 01:48:04;;;;;;;9.10;8.27;;;;;;;19.15;64.46;156285.66;5059755;28;20943;-86
2023/06/10 01:50:31;;;;;;;8.07;7.27;;;;;;;19.09;64.36;156270.00;5026783;28;20451;-86
2023/06/10 01:52:58;;;;;;;7.67;6.97;;;;;;;19.06;64.63;156262.19;5042573;28;20439;-86
2023/06/10 01:55:24;;;;;;;8.40;7.70;;;;;;;19.11;64.42;156273.94;5025990;28;20517;-85
2023/06/10 01:57:52;;;;;;;7.87;7.17;;;;;;;19.10;64.17;156272.63;5060976;28;20566;-86
2023/06/10 02:00:19;;;;;;;8.50;7.70;;;;;;;19.08;64.33;156266.13;5029110;28;20440;-86
2023/06/10 02:02:46;;;;;;;8.23;7.20;;;;;;;19.06;64.50;156262.19;5045372;28;20439;-86
2023/06/10 02:05:12;;;;;;;8.60;7.80;;;;;;;19.00;64.71;156246.59;5052363;28;20450;-86
2023/06/10 02:07:39;;;;;;;8.17;7.40;;;;;;;19.00;64.59;156245.28;5031617;28;21038;-86
2023/06/10 02:10:08;;;;;;;7.93;7.20;;;;;;;18.94;64.90;156230.94;5062057;28;21011;-86
2023/06/10 02:12:34;;;;;;;7.40;6.80;;;;;;;18.89;65.35;156217.91;5046648;28;20550;-85
2023/06/10 02:15:02;;;;;;;7.23;6.50;;;;;;;18.83;65.23;156202.25;5056423;28;20455;-86
2023/06/10 02:17:30;;;;;;;7.10;6.40;;;;;;;18.78;65.69;156189.22;5049885;28;20443;-86
2023/06/10 02:19:56;;;;;;;7.67;6.97;;;;;;;18.78;65.69;156190.53;5048111;28;20888;-86
2023/06/10 02:22:24;;;;;;;7.47;6.53;;;;;;;18.78;65.66;156189.22;5057120;28;20454;-86
2023/06/10 02:24:50;;;;;;;6.93;6.33;;;;;;;18.75;65.58;156181.41;5052254;28;20451;-86
2023/06/10 02:27:17;;;;;;;7.10;6.40;;;;;;;18.74;65.55;156180.09;5030871;28;20474;-86
2023/06/10 02:29:44;;;;;;;6.60;6.00;;;;;;;18.67;65.73;156160.56;5054159;28;20478;-86
2023/06/10 02:32:12;;;;;;;7.00;6.40;;;;;;;18.75;65.88;156181.41;5044499;28;20566;-86
2023/06/10 02:34:42;;;;;;;6.80;6.10;;;;;;;18.72;65.78;156174.91;5047809;28;20463;-86
2023/06/10 02:37:09;;;;;;;7.37;5.47;;;;;;;18.66;65.85;156158.00;5061031;28;20463;-86
2023/06/10 02:39:36;;;;;;;6.27;5.67;;;;;;;18.69;65.71;156167.06;5047999;28;20462;-86
2023/06/10 02:42:07;;;;;;;7.27;6.43;;;;;;;18.66;65.91;156159.31;5067231;28;20457;-86
2023/06/10 02:44:34;;;;;;;6.57;5.97;;;;;;;18.64;66.19;156152.75;5044642;28;20464;-86
2023/06/10 02:47:00;;;;;;;6.80;6.20;;;;;;;18.62;66.28;156147.53;5062987;28;20479;-86
2023/06/10 02:49:29;;;;;;;7.10;6.40;;;;;;;18.58;66.58;156137.13;5060133;28;20466;-86
2023/06/10 02:51:57;;;;;;;6.40;5.77;;;;;;;18.56;66.79;156131.94;5034678;28;20458;-86
2023/06/10 02:54:24;;;;;;;6.27;5.67;;;;;;;18.55;66.40;156129.31;5047575;28;20491;-86
2023/06/10 02:56:54;;;;;;;7.00;6.40;;;;;;;18.61;66.24;156144.97;5044613;28;20442;-86
2023/06/10 02:59:24;;;;;;;6.73;6.13;;;;;;;18.53;66.49;156124.13;5043540;28;20585;-86
2023/06/10 03:01:51;;;;;;;6.10;5.60;;;;;;;18.52;66.61;156121.50;5052380;28;20439;-86
2023/06/10 03:04:18;;;;;;;6.47;5.87;;;;;;;18.46;67.44;156107.09;5048918;28;20449;-86
2023/06/10 03:06:54;;;;;;;6.90;5.70;;;;;;;18.40;67.46;156091.47;5046345;28;20473;-86
2023/06/10 03:09:29;;;;;;;8.10;6.23;;;;;;;18.30;67.73;156064.13;5038486;28;20980;-85
2023/06/10 03:11:58;;;;;;;7.00;6.40;;;;;;;18.34;68.07;156074.56;5064333;28;20439;-85
2023/06/10 03:14:26;;;;;;;6.27;5.70;;;;;;;18.28;68.24;156060.22;5048196;28;20458;-86
2023/06/10 03:16:53;;;;;;;6.90;6.30;;;;;;;18.33;68.29;156071.94;5049791;28;20463;-85
2023/06/10 03:19:23;;;;;;;7.33;6.70;;;;;;;18.24;68.61;156049.84;5045705;28;20547;-86
2023/06/10 03:22:07;;;;;;;7.10;6.40;;;;;;;18.20;69.04;156040.69;5070465;28;20504;-85
2023/06/10 03:24:36;;;;;;;6.17;5.67;;;;;;;18.17;69.55;156032.88;5041440;28;20834;-85
2023/06/10 03:27:05;;;;;;;6.77;6.17;;;;;;;18.13;69.66;156021.19;5048124;28;20497;-85
2023/06/10 03:29:32;;;;;;;6.37;5.77;;;;;;;18.15;69.37;156027.69;5064245;28;21013;-85
2023/06/10 03:32:00;;;;;;;6.53;5.93;;;;;;;18.12;69.44;156018.56;5064122;28;20550;-85
2023/06/10 03:34:27;;;;;;;6.73;6.13;;;;;;;18.01;70.05;155991.22;5047546;28;20466;-86
2023/06/10 03:36:54;;;;;;;7.23;6.37;;;;;;;17.93;70.34;155970.38;5046335;28;20541;-86
2023/06/10 03:39:23;;;;;;;6.90;6.30;;;;;;;17.91;71.05;155965.16;5044684;28;21017;-86
2023/06/10 03:41:49;;;;;;;6.13;5.50;;;;;;;17.93;71.23;155970.38;5058978;28;20455;-86
2023/06/10 03:44:16;;;;;;;6.40;5.80;;;;;;;17.94;70.76;155973.00;5052652;28;20454;-86
2023/06/10 03:46:43;;;;;;;5.63;5.13;;;;;;;17.89;71.01;155959.97;5062907;28;20475;-86
2023/06/10 03:49:10;;;;;;;6.67;6.07;;;;;;;17.83;71.54;155944.34;5064035;28;20562;-86
2023/06/10 03:51:37;;;;;;;6.30;5.70;;;;;;;17.84;71.62;155946.97;5043967;28;20444;-85
2023/06/10 03:54:04;;;;;;;6.77;6.20;;;;;;;17.90;71.71;155962.56;5063180;28;20471;-86
2023/06/10 03:56:32;;;;;;;6.73;6.03;;;;;;;17.87;71.87;155953.47;5047944;28;20550;-85
2023/06/10 03:59:00;;;;;;;6.00;5.47;;;;;;;17.85;72.25;155949.53;5048201;28;20844;-86
2023/06/10 04:01:28;;;;;;;6.47;5.87;;;;;;;17.90;71.96;155961.25;5044582;28;20494;-85
2023/06/10 04:03:55;;;;;;;6.80;6.20;;;;;;;17.97;71.92;155980.81;5030319;28;20463;-86
2023/06/10 04:06:25;;;;;;;6.57;5.90;;;;;;;18.04;71.39;155997.72;5064318;28;20525;-86
2023/06/10 04:08:54;;;;;;;7.43;6.40;;;;;;;18.05;71.75;156001.66;5064396;28;20490;-86
2023/06/10 04:11:20;;;;;;;6.83;6.20;;;;;;;18.12;71.78;156019.88;5028319;28;20517;-87
2023/06/10 04:13:50;;;;;;;6.47;5.67;;;;;;;18.34;70.75;156075.88;5065736;28;20455;-87
2023/06/10 04:16:17;;;;;;;6.27;5.67;;;;;;;18.41;70.85;156092.78;5047999;28;20504;-87
2023/06/10 04:18:44;;;;;;;6.60;6.00;;;;;;;18.55;70.34;156129.31;5042260;28;20558;-87
2023/06/10 04:21:11;;;;;;;7.23;6.53;;;;;;;18.68;69.94;156164.50;5039612;28;20532;-87
2023/06/10 04:23:39;;;;;;;9.03;6.53;;;;;;;18.87;69.08;156212.72;5069174;28;20458;-87
2023/06/10 04:26:06;;;;;;;6.10;5.50;;;;;;;18.96;69.30;156234.81;5054025;28;20485;-86
2023/06/10 04:28:33;;;;;;;6.43;5.83;;;;;;;19.14;68.90;156283.03;5049809;28;20478;-87
2023/06/10 04:31:03;;;;;;;6.33;5.80;;;;;;;19.39;67.48;156348.28;5047090;28;20846;-87
2023/06/10 04:33:31;;;;;;;6.27;5.67;;;;;;;19.48;67.07;156370.44;5043958;28;20796;-88
2023/06/10 04:35:58;;;;;;;7.03;6.43;;;;;;;19.56;66.85;156390.00;5041689;28;20456;-87
2023/06/10 04:38:30;;;;;;;6.37;5.77;;;;;;;19.64;66.82;156410.84;5044476;28;20478;-86
2023/06/10 04:40:58;;;;;;;6.53;5.93;;;;;;;19.77;66.58;156446.06;5053375;28;20466;-86
2023/06/10 04:43:25;;;;;;;6.47;5.87;;;;;;;19.91;65.30;156482.53;5047687;28;20481;-86
2023/06/10 04:45:52;;;;;;;6.30;5.73;;;;;;;19.91;65.48;156481.22;5047513;28;20439;-87
2023/06/10 04:48:20;;;;;;;6.83;6.20;;;;;;;20.01;65.24;156507.34;5026908;28;20777;-87
2023/06/10 04:50:47;;;;;;;6.47;5.87;;;;;;;20.15;64.95;156543.81;5049843;28;21128;-87
2023/06/10 04:53:15;;;;;;;6.73;6.03;;;;;;;20.24;64.53;156567.38;5047582;28;20948;-86
2023/06/10 04:55:46;;;;;;;6.83;6.23;;;;;;;20.22;64.89;156562.13;5060376;28;20454;-86
2023/06/10 04:58:12;;;;;;;6.97;6.37;;;;;;;20.33;64.18;156589.56;5055882;28;20463;-86
2023/06/10 05:00:39;;;;;;;7.03;6.43;;;;;;;20.39;64.31;156606.47;5059146;28;20979;-86
2023/06/10 05:03:06;;;;;;;6.33;5.73;;;;;;;20.46;63.79;156624.78;5043301;28;20453;-87
2023/06/10 05:05:34;;;;;;;6.10;5.60;;;;;;;20.54;63.84;156645.59;5060064;28;20463;-85
2023/06/10 05:08:00;;;;;;;6.10;5.53;;;;;;;20.67;63.22;156676.94;5057523;28;20479;-85
2023/06/10 05:10:27;;;;;;;5.83;5.20;;;;;;;20.76;63.22;156700.44;5040531;28;20466;-85
2023/06/10 05:12:54;;;;;;;6.83;6.23;;;;;;;20.88;62.49;156733.06;5059505;28;20451;-85
2023/06/10 05:15:20;;;;;;;6.60;5.90;;;;;;;20.98;62.40;156757.81;5060291;28;20478;-85
2023/06/10 05:17:47;;;;;;;7.30;6.60;;;;;;;21.01;62.47;156765.66;5058623;28;20450;-84
2023/06/10 05:20:15;;;;;;;6.67;6.07;;;;;;;21.12;62.49;156794.44;5055413;28;20458;-85
2023/06/10 05:22:42;;;;;;;6.83;6.23;;;;;;;21.41;61.88;156868.81;5059303;28;20454;-86
2023/06/10 05:25:09;;;;;;;6.13;5.63;;;;;;;21.66;60.85;156935.38;5059140;28;20461;-86
2023/06/10 05:27:36;;;;;;;7.03;6.40;;;;;;;21.92;60.14;157000.72;5038840;28;20531;-86
2023/06/10 05:30:04;;;;;;;6.97;6.33;;;;;;;22.11;59.78;157050.31;5037340;28;20474;-86
2023/06/10 05:32:30;;;;;;;6.77;6.00;;;;;;;22.23;59.19;157081.69;5059852;28;20458;-87
2023/06/10 05:34:57;;;;;;;6.47;5.83;;;;;;;22.39;58.34;157123.47;5062106;28;20453;-85
2023/06/10 05:37:24;;;;;;;7.30;6.60;;;;;;;22.38;58.41;157120.84;5061218;28;20455;-86
2023/06/10 05:39:52;;;;;;;6.67;6.10;;;;;;;22.50;58.80;157150.91;5048004;28;20985;-87
2023/06/10 05:42:19;;;;;;;6.97;6.37;;;;;;;22.69;57.49;157201.88;5064137;28;20454;-85
2023/06/10 05:44:45;;;;;;;6.83;6.23;;;;;;;22.91;57.12;157258.06;5045022;28;20539;-85
2023/06/10 05:47:12;;;;;;;6.80;6.20;;;;;;;23.17;57.04;157326.00;5041555;28;20473;-85
2023/06/10 05:49:38;;;;;;;7.00;6.30;;;;;;;23.38;56.04;157380.97;5042080;28;21355;-87
2023/06/10 05:52:06;;;;;;;7.50;6.90;;;;;;;23.39;56.07;157382.28;5032284;28;20460;-88
2023/06/10 05:54:33;;;;;;;7.50;6.90;;;;;;;23.40;56.71;157384.91;5045834;28;20451;-85
2023/06/10 05:57:01;;;;;;;7.40;6.53;;;;;;;23.52;55.95;157416.25;5033808;28;20830;-86
2023/06/10 05:59:27;;;;;;;6.87;6.27;;;;;;;23.70;56.59;157463.31;5056050;28;20463;-86
2023/06/10 06:01:54;;;;;;;6.83;6.23;;;;;;;23.86;55.32;157505.16;5053692;28;20454;-86
2023/06/10 06:04:21;;;;;;;6.90;6.30;;;;;;;24.10;54.82;157567.97;5068624;28;20467;-87
2023/06/10 06:06:47;;;;;;;6.87;6.27;;;;;;;23.95;54.43;157528.69;5024271;28;20546;-86
2023/06/10 06:09:14;;;;;;;6.53;6.00;;;;;;;24.03;55.03;157549.63;5027864;28;20463;-86
2023/06/10 06:11:42;;;;;;;7.63;6.93;;;;;;;24.14;54.35;157578.47;5052036;28;20457;-87
2023/06/10 06:14:10;;;;;;;7.43;6.73;;;;;;;24.13;54.64;157575.81;5049221;28;20537;-86
2023/06/10 06:16:36;;;;;;;6.63;6.03;;;;;;;24.34;54.21;157629.44;5052378;28;20446;-87
2023/06/10 06:19:03;;;;;;;7.63;7.03;;;;;;;24.52;53.04;157676.50;5046850;28;20442;-85
2023/06/10 06:21:29;;;;;;;8.57;7.77;;;;;;;24.50;52.92;157669.97;5023253;28;20520;-86
2023/06/10 06:23:57;;;;;;;7.70;7.00;;;;;;;24.46;52.62;157659.53;5046627;28;20454;-86
2023/06/10 06:26:25;;;;;;;7.80;7.20;;;;;;;24.51;53.48;157672.59;5052161;28;20443;-86
2023/06/10 06:28:52;;;;;;;7.30;6.70;;;;;;;24.61;53.09;157700.06;5050753;28;20494;-86
2023/06/10 06:31:19;;;;;;;7.67;6.90;;;;;;;24.76;52.07;157737.97;5059711;28;20466;-85
2023/06/10 06:33:46;;;;;;;7.13;6.53;;;;;;;24.77;52.17;157740.63;5029746;28;20447;-86
2023/06/10 06:36:13;;;;;;;7.90;7.20;;;;;;;24.71;52.04;157724.91;5049423;28;20458;-87
2023/06/10 06:38:39;;;;;;;7.13;6.50;;;;;;;24.70;52.05;157723.59;5062662;28;20476;-86
2023/06/10 06:41:06;;;;;;;7.23;6.63;;;;;;;24.70;51.68;157722.31;5045703;28;20498;-86
2023/06/10 06:43:33;;;;;;;8.13;7.43;;;;;;;24.78;52.55;157743.25;5042073;28;20481;-87
2023/06/10 06:46:36;;;;;;;9.60;7.10;;;;;;;25.06;51.91;157815.25;5036673;28;20540;-86
2023/06/10 06:49:03;;;;;;;7.60;6.60;;;;;;;24.80;52.01;157748.53;5044153;28;20602;-86
2023/06/10 06:51:30;;;;;;;8.13;7.13;;;;;;;24.90;52.23;157773.38;5061701;28;20489;-86
2023/06/10 06:53:58;;;;;;;7.77;7.17;;;;;;;25.11;51.71;157828.31;5028153;28;20459;-87
2023/06/10 06:56:26;;;;;;;7.20;6.50;;;;;;;25.03;51.36;157808.69;5063254;28;20439;-87
2023/06/10 06:58:52;;;;;;;7.70;7.00;;;;;;;25.23;51.76;157859.75;5054298;28;20461;-87
2023/06/10 07:01:19;;;;;;;7.07;6.47;;;;;;;25.04;51.22;157811.34;5042478;28;21024;-87
2023/06/10 07:03:47;;;;;;;6.77;6.17;;;;;;;24.89;50.87;157772.03;5060315;28;20839;-86
2023/06/10 07:06:14;;;;;;;7.07;6.47;;;;;;;24.55;52.44;157684.38;5061901;28;20517;-87
2023/06/10 07:08:40;;;;;;;6.90;6.30;;;;;;;24.63;52.07;157703.97;5044586;28;20582;-87
2023/06/10 07:11:10;;;;;;;7.57;6.87;;;;;;;24.67;52.26;157714.47;5026018;28;20505;-87
2023/06/10 07:13:37;;;;;;;7.30;6.60;;;;;;;24.90;52.32;157773.38;5065291;28;20462;-87
2023/06/10 07:16:04;;;;;;;6.60;6.00;;;;;;;25.13;51.63;157833.53;5046413;28;20462;-87
2023/06/10 07:18:30;;;;;;;7.27;6.53;;;;;;;25.46;50.47;157918.63;5047546;28;20453;-88
2023/06/10 07:20:58;;;;;;;7.10;6.50;;;;;;;25.74;49.96;157991.97;5034301;28;20479;-87
2023/06/10 07:23:25;;;;;;;6.43;5.93;;;;;;;25.72;49.70;157986.72;5065176;28;20459;-87
2023/06/10 07:25:52;;;;;;;7.43;6.67;;;;;;;25.96;49.93;158049.59;5060820;28;20458;-87
2023/06/10 07:28:19;;;;;;;6.43;5.87;;;;;;;26.13;48.86;158092.84;5059542;28;20556;-87
2023/06/10 07:30:45;;;;;;;6.70;6.10;;;;;;;25.88;49.30;158028.63;5063844;28;20446;-87
2023/06/10 07:33:12;;;;;;;6.63;6.13;;;;;;;26.10;49.25;158086.25;5046680;28;20477;-88
2023/06/10 07:35:39;;;;;;;7.03;6.50;;;;;;;26.04;48.77;158070.53;5049012;28;20961;-87
2023/06/10 07:38:07;;;;;;;6.27;5.77;;;;;;;25.83;50.15;158016.88;5043724;28;20455;-78
2023/06/10 07:40:33;;;;;;;7.03;6.43;;;;;;;25.86;49.22;158024.72;5045919;28;20451;-78
2023/06/10 07:43:00;;;;;;;7.83;6.10;;;;;;;25.92;49.42;158039.13;5062052;28;20474;-78
2023/06/10 07:45:26;;;;;;;7.93;7.23;;;;;;;26.38;49.04;158158.31;5059974;28;20866;-78
2023/06/10 07:47:53;;;;;;;7.67;7.00;;;;;;;26.50;47.74;158191.03;5053668;28;20558;-78
2023/06/10 07:50:20;;;;;;;7.70;7.00;;;;;;;26.55;48.80;158204.19;5062851;28;20455;-78
2023/06/10 07:52:46;;;;;;;9.87;8.80;;;;;;;26.54;47.95;158201.53;5048384;28;20837;-78
2023/06/10 07:55:14;;;;;;;7.70;7.00;;;;;;;26.75;48.17;158255.22;5060951;28;20995;-78
2023/06/10 07:57:41;;;;;;;7.77;7.07;;;;;;;27.01;46.81;158322.06;5043753;28;21054;-79
2023/06/10 08:00:08;;;;;;;7.33;6.73;;;;;;;26.84;47.07;158278.88;5046913;28;20463;-79
2023/06/10 08:02:44;;;;;;;7.60;7.00;;;;;;;27.05;47.21;158332.56;5048335;28;20925;-78
2023/06/10 08:05:11;;;;;;;7.63;6.83;;;;;;;27.23;46.49;158379.75;5039327;28;20478;-78
2023/06/10 08:07:37;;;;;;;8.30;7.47;;;;;;;27.26;45.98;158387.59;5062058;28;20455;-78
2023/06/10 08:10:05;;;;;;;9.13;8.23;;;;;;;26.96;46.92;158310.28;5036455;28;20451;-79
2023/06/10 08:12:35;;;;;;;8.00;7.30;;;;;;;26.60;48.20;158217.25;5044515;28;20454;-78
2023/06/10 08:15:03;;;;;;;7.70;7.00;;;;;;;26.56;48.12;158206.75;5044555;28;20611;-78
2023/06/10 08:17:30;;;;;;;8.53;7.80;;;;;;;26.42;48.08;158170.06;5042506;28;20547;-78
2023/06/10 08:19:57;;;;;;;8.27;7.47;;;;;;;26.29;48.78;158134.75;5065302;28;20462;-78
2023/06/10 08:22:23;;;;;;;8.40;7.70;;;;;;;26.58;48.63;158212.00;5048227;28;20466;-78
2023/06/10 08:24:50;;;;;;;8.33;7.63;;;;;;;26.63;47.61;158223.81;5062433;28;20977;-78
2023/06/10 08:27:19;;;;;;;8.77;7.97;;;;;;;26.21;48.69;158115.06;5038861;28;20455;-78
2023/06/10 08:29:47;;;;;;;8.90;8.20;;;;;;;26.45;48.44;158176.66;5060083;28;20497;-79
2023/06/10 08:32:14;;;;;;;9.23;8.47;;;;;;;26.70;47.82;158240.81;5043016;28;20481;-79
2023/06/10 08:34:40;;;;;;;7.73;7.00;;;;;;;26.95;47.22;158306.38;5044379;28;20465;-79
2023/06/10 08:37:08;;;;;;;8.17;7.47;;;;;;;27.03;47.32;158327.34;5044977;28;20517;-79
2023/06/10 08:39:35;;;;;;;8.00;7.30;;;;;;;26.79;47.51;158265.78;5043396;28;21026;-79
2023/06/10 08:42:07;;;;;;;7.73;7.03;;;;;;;26.77;48.14;158260.50;5042067;28;20935;-79
2023/06/10 08:44:38;;;;;;;7.50;6.90;;;;;;;27.07;47.60;158339.13;5038708;28;20458;-79
2023/06/10 08:47:09;;;;;;;8.67;7.90;;;;;;;26.96;47.10;158308.97;5037351;28;20442;-79
2023/06/10 08:49:39;;;;;;;8.17;7.57;;;;;;;27.26;47.57;158387.59;5042879;28;20843;-79
2023/06/10 08:52:07;;;;;;;8.43;7.73;;;;;;;27.44;46.33;158433.50;5042154;28;20442;-79
2023/06/10 08:57:20;;;;;;;8.10;7.40;;;;;;;28.15;45.37;158619.69;5043248;28;21191;-79
2023/06/10 08:59:47;;;;;;;8.47;7.77;;;;;;;28.20;45.51;158631.47;5053803;28;20454;-80
2023/06/10 09:02:19;;;;;;;7.73;7.13;;;;;;;28.06;44.57;158594.78;5039251;28;20459;-78
2023/06/10 09:04:47;;;;;;;7.47;6.87;;;;;;;27.96;45.36;158569.81;5039246;28;20462;-78
2023/06/10 09:07:15;;;;;;;8.00;7.30;;;;;;;28.20;45.42;158631.47;5042606;28;20451;-77
2023/06/10 09:09:43;;;;;;;7.40;6.80;;;;;;;28.08;43.69;158600.03;5040381;28;20835;-79
2023/06/10 09:12:10;;;;;;;7.23;6.63;;;;;;;27.74;45.28;158512.16;5041105;28;20985;-77
2023/06/10 09:14:37;;;;;;;6.97;6.37;;;;;;;27.73;44.75;158510.84;5044465;28;20450;-78
2023/06/10 09:17:04;;;;;;;6.97;6.27;;;;;;;27.47;44.67;158441.38;5060964;28;20451;-77
2023/06/10 09:19:32;;;;;;;7.40;6.80;;;;;;;27.31;45.72;158400.69;5058176;28;20454;-77
2023/06/10 09:21:59;;;;;;;6.93;6.30;;;;;;;26.82;46.07;158272.31;5054090;28;20492;-80
2023/06/10 09:24:26;;;;;;;6.93;6.27;;;;;;;26.46;46.47;158179.25;5041949;28;20486;-80
2023/06/10 09:27:03;;;;;;;7.00;6.40;;;;;;;25.91;48.14;158037.81;5042958;28;20449;-80
2023/06/10 09:29:35;;;;;;;6.97;6.37;;;;;;;25.96;48.98;158049.59;5059127;28;20497;-79
2023/06/10 09:32:08;;;;;;;6.43;5.93;;;;;;;26.31;48.50;158139.97;5045941;28;20982;-79
2023/06/10 09:34:37;;;;;;;6.60;6.10;;;;;;;26.24;47.09;158121.66;5057378;28;20458;-79
2023/06/10 09:37:04;;;;;;;6.20;5.70;;;;;;;26.24;48.37;158122.94;5042476;28;20512;-80
2023/06/10 09:39:30;;;;;;;7.00;6.40;;;;;;;26.19;47.68;158109.84;5053338;28;20450;-79
2023/06/10 09:41:57;;;;;;;6.77;6.20;;;;;;;26.15;48.11;158099.41;5038358;28;20453;-79
2023/06/10 09:44:25;;;;;;;7.30;6.73;;;;;;;26.03;48.22;158067.88;5054392;28;20508;-78
2023/06/10 09:46:51;;;;;;;6.63;6.10;;;;;;;25.95;47.88;158046.94;5037731;28;20450;-78
2023/06/10 09:49:18;;;;;;;6.70;6.10;;;;;;;26.24;46.75;158121.66;5035922;28;20951;-78
2023/06/10 09:51:53;;;;;;;7.13;6.53;;;;;;;26.59;46.29;158214.63;5056859;28;20481;-78
2023/06/10 09:54:20;;;;;;;6.97;6.37;;;;;;;26.77;45.07;158259.19;5056526;28;20910;-78
2023/06/10 09:56:48;;;;;;;6.87;6.27;;;;;;;26.99;45.30;158316.84;5040005;28;20462;-78
2023/06/10 09:59:14;;;;;;;7.50;6.90;;;;;;;26.74;46.14;158251.31;5039421;28;20540;-78
2023/06/10 10:01:41;;;;;;;7.27;6.67;;;;;;;26.79;45.99;158264.47;5055971;28;20469;-78
2023/06/10 10:04:08;;;;;;;6.40;5.80;;;;;;;26.89;45.40;158290.66;5041705;28;20458;-78
2023/06/10 10:06:35;;;;;;;6.90;6.30;;;;;;;26.28;46.14;158133.44;5041129;28;20442;-78
2023/06/10 10:09:03;;;;;;;6.90;6.30;;;;;;;26.11;47.21;158088.84;5039256;28;20474;-78
2023/06/10 10:11:32;;;;;;;6.63;6.13;;;;;;;26.23;45.86;158119.03;5051568;28;20859;-77
2023/06/10 10:13:59;;;;;;;7.50;6.80;;;;;;;26.44;47.12;158175.34;5039917;28;20466;-78
2023/06/10 10:16:31;;;;;;;7.20;6.60;;;;;;;26.30;46.22;158138.66;5034351;28;20459;-78
2023/06/10 10:19:08;;;;;;;6.80;6.30;;;;;;;26.50;45.57;158189.75;5056510;28;20482;-77
2023/06/10 10:21:39;;;;;;;6.60;6.10;;;;;;;26.84;45.51;158278.88;5040370;28;20442;-78
2023/06/10 10:24:10;;;;;;;7.57;6.87;;;;;;;26.79;45.75;158265.78;5065020;28;20459;-78
2023/06/10 10:26:38;;;;;;;7.37;6.77;;;;;;;26.75;45.02;158253.91;5061979;28;20462;-78
2023/06/10 10:29:09;;;;;;;7.83;7.23;;;;;;;26.74;45.83;158251.31;5058771;28;20482;-79
2023/06/10 10:31:37;;;;;;;7.40;6.80;;;;;;;26.69;45.27;158238.22;5044439;28;20447;-78
2023/06/10 10:34:06;;;;;;;7.00;6.40;;;;;;;26.50;46.32;158191.03;5050820;28;20454;-78
2023/06/10 10:36:33;;;;;;;7.30;6.70;;;;;;;26.37;46.35;158156.97;5063603;28;20447;-78
2023/06/10 10:39:01;;;;;;;7.67;6.97;;;;;;;26.66;46.27;158230.34;5060915;28;20454;-79
2023/06/10 10:41:30;;;;;;;7.07;6.47;;;;;;;27.13;44.12;158353.53;5063453;28;20454;-78
2023/06/10 10:43:57;;;;;;;7.10;6.43;;;;;;;27.30;43.11;158398.06;5061237;28;20556;-78
2023/06/10 10:46:24;;;;;;;6.60;6.00;;;;;;;27.23;44.30;158379.75;5043573;28;20726;-79
2023/06/10 10:48:53;;;;;;;6.20;5.70;;;;;;;27.13;43.37;158353.53;5056161;28;20491;-79
2023/06/10 10:51:20;;;;;;;6.90;6.40;;;;;;;27.03;43.40;158328.63;5061017;28;20461;-78
2023/06/10 10:54:11;;;;;;;6.63;6.03;;;;;;;26.80;43.89;158267.06;5062642;28;20454;-78
2023/06/10 10:56:39;;;;;;;7.30;6.60;;;;;;;26.76;44.22;158257.88;5042416;28;20554;-78
2023/06/10 10:59:07;;;;;;;6.53;5.93;;;;;;;26.68;43.51;158235.59;5055483;28;20633;-78
2023/06/10 11:01:41;;;;;;;7.27;6.73;;;;;;;26.78;43.50;158261.81;5044049;28;20524;-78
2023/06/10 11:04:08;;;;;;;7.20;6.60;;;;;;;26.63;44.64;158225.09;5060543;28;20470;-78
2023/06/10 11:06:34;;;;;;;6.73;6.13;;;;;;;26.78;44.82;158261.81;5022794;28;20549;-78
2023/06/10 11:09:01;;;;;;;7.50;6.80;;;;;;;26.67;43.88;158232.94;5046420;28;20497;-78
2023/06/10 11:11:28;;;;;;;7.80;7.20;;;;;;;26.19;43.91;158109.84;5047401;28;20453;-78
2023/06/10 11:14:10;;;;;;;6.80;6.17;;;;;;;26.12;44.75;158090.16;5059146;28;20451;-79
2023/06/10 11:16:41;;;;;;;6.70;6.20;;;;;;;26.25;44.99;158125.56;5045625;28;20554;-78
2023/06/10 11:19:08;;;;;;;7.20;6.60;;;;;;;26.39;44.74;158162.25;5059536;28;20447;-79
2023/06/10 11:21:46;;;;;;;7.33;6.73;;;;;;;26.21;44.40;158115.06;5044299;28;20481;-78
2023/06/10 11:24:13;;;;;;;7.23;6.63;;;;;;;26.23;46.03;158120.34;5056083;28;20466;-78
2023/06/10 11:26:44;;;;;;;7.30;6.80;;;;;;;26.41;45.19;158167.47;5055871;28;20462;-78
2023/06/10 11:29:15;;;;;;;6.77;6.20;;;;;;;26.63;44.67;158223.81;5041119;28;20537;-79
2023/06/10 11:31:44;;;;;;;7.47;6.87;;;;;;;26.85;45.64;158280.16;5057680;28;20513;-78